sensor_id;sensor_type;location;lat;lon;timestamp;P1;durP1;ratioP1;P2;durP2;ratioP2
21959;SDS011;11144;43.030;25.108;2022-07-04T00:01:32;5.07;;;4.32;;
21959;SDS011;11144;43.030;25.108;2022-07-04T00:03:05;4.85;;;4.28;;
21959;SDS011;11144;43.030;25.108;2022-07-04T00:04:37;7.65;;;4.25;;
21959;SDS011;11144;43.030;25.108;2022-07-04T00:06:11;5.85;;;4.80;;
21959;SDS011;11144;43.030;25.108;2022-07-04T00:07:45;5.25;;;4.72;;
21959;SDS011;11144;43.030;25.108;2022-07-04T00:09:27;5.28;;;4.35;;
21959;SDS011;11144;43.030;25.108;2022-07-04T00:11:01;6.10;;;4.43;;
21959;SDS011;11144;43.030;25.108;2022-07-04T00:12:33;5.25;;;4.40;;
21959;SDS011;11144;43.030;25.108;2022-07-04T00:14:07;6.03;;;4.40;;
21959;SDS011;11144;43.030;25.108;2022-07-04T00:15:40;7.80;;;4.65;;
21959;SDS011;11144;43.030;25.108;2022-07-04T00:17:14;8.65;;;5.03;;
21959;SDS011;11144;43.030;25.108;2022-07-04T00:18:46;8.25;;;4.38;;
21959;SDS011;11144;43.030;25.108;2022-07-04T00:20:19;7.65;;;4.97;;
21959;SDS011;11144;43.030;25.108;2022-07-04T00:21:53;8.00;;;5.00;;
21959;SDS011;11144;43.030;25.108;2022-07-04T00:23:26;5.47;;;4.90;;
21959;SDS011;11144;43.030;25.108;2022-07-04T00:25:01;5.75;;;4.65;;
21959;SDS011;11144;43.030;25.108;2022-07-04T00:26:35;5.88;;;5.00;;
21959;SDS011;11144;43.030;25.108;2022-07-04T00:28:08;7.75;;;4.85;;
21959;SDS011;11144;43.030;25.108;2022-07-04T00:29:42;6.38;;;4.28;;
21959;SDS011;11144;43.030;25.108;2022-07-04T00:31:15;7.28;;;5.65;;
21959;SDS011;11144;43.030;25.108;2022-07-04T00:32:49;4.88;;;4.32;;
21959;SDS011;11144;43.030;25.108;2022-07-04T00:34:22;7.38;;;4.45;;
21959;SDS011;11144;43.030;25.108;2022-07-04T00:35:55;5.80;;;4.47;;
21959;SDS011;11144;43.030;25.108;2022-07-04T00:37:29;11.05;;;4.97;;
21959;SDS011;11144;43.030;25.108;2022-07-04T00:39:02;4.53;;;4.07;;
21959;SDS011;11144;43.030;25.108;2022-07-04T00:40:38;5.32;;;4.75;;
21959;SDS011;11144;43.030;25.108;2022-07-04T00:42:11;6.00;;;4.07;;
21959;SDS011;11144;43.030;25.108;2022-07-04T00:43:58;6.93;;;4.25;;
21959;SDS011;11144;43.030;25.108;2022-07-04T00:45:43;6.85;;;4.85;;
21959;SDS011;11144;43.030;25.108;2022-07-04T00:47:17;6.15;;;4.43;;
21959;SDS011;11144;43.030;25.108;2022-07-04T00:48:50;6.10;;;4.68;;
21959;SDS011;11144;43.030;25.108;2022-07-04T00:50:23;8.63;;;4.70;;
21959;SDS011;11144;43.030;25.108;2022-07-04T00:51:57;5.28;;;4.25;;
21959;SDS011;11144;43.030;25.108;2022-07-04T00:53:31;8.57;;;5.22;;
21959;SDS011;11144;43.030;25.108;2022-07-04T00:55:05;8.05;;;5.40;;
21959;SDS011;11144;43.030;25.108;2022-07-04T00:56:40;10.25;;;5.93;;
21959;SDS011;11144;43.030;25.108;2022-07-04T00:58:14;5.45;;;4.70;;
21959;SDS011;11144;43.030;25.108;2022-07-04T00:59:51;9.65;;;5.65;;
21959;SDS011;11144;43.030;25.108;2022-07-04T01:01:24;6.95;;;4.20;;
21959;SDS011;11144;43.030;25.108;2022-07-04T01:02:57;8.88;;;5.00;;
21959;SDS011;11144;43.030;25.108;2022-07-04T01:04:31;9.00;;;4.68;;
21959;SDS011;11144;43.030;25.108;2022-07-04T01:06:04;7.28;;;5.13;;
21959;SDS011;11144;43.030;25.108;2022-07-04T01:07:40;8.23;;;4.97;;
21959;SDS011;11144;43.030;25.108;2022-07-04T01:09:14;8.93;;;4.57;;
21959;SDS011;11144;43.030;25.108;2022-07-04T01:10:48;5.95;;;4.40;;
21959;SDS011;11144;43.030;25.108;2022-07-04T01:12:26;6.30;;;4.65;;
21959;SDS011;11144;43.030;25.108;2022-07-04T01:13:59;8.13;;;5.05;;
21959;SDS011;11144;43.030;25.108;2022-07-04T01:15:34;8.25;;;4.95;;
21959;SDS011;11144;43.030;25.108;2022-07-04T01:17:07;6.78;;;4.90;;
21959;SDS011;11144;43.030;25.108;2022-07-04T01:18:40;8.75;;;6.10;;
21959;SDS011;11144;43.030;25.108;2022-07-04T01:20:15;8.65;;;4.75;;
21959;SDS011;11144;43.030;25.108;2022-07-04T01:21:48;6.68;;;5.05;;
21959;SDS011;11144;43.030;25.108;2022-07-04T01:23:21;8.65;;;5.10;;
21959;SDS011;11144;43.030;25.108;2022-07-04T01:24:54;8.38;;;5.28;;
21959;SDS011;11144;43.030;25.108;2022-07-04T01:26:28;6.28;;;5.50;;
21959;SDS011;11144;43.030;25.108;2022-07-04T01:28:02;8.65;;;5.60;;
21959;SDS011;11144;43.030;25.108;2022-07-04T01:29:38;6.72;;;4.93;;
21959;SDS011;11144;43.030;25.108;2022-07-04T01:31:11;10.90;;;4.88;;
21959;SDS011;11144;43.030;25.108;2022-07-04T01:32:45;6.95;;;5.18;;
21959;SDS011;11144;43.030;25.108;2022-07-04T01:34:18;7.15;;;5.07;;
21959;SDS011;11144;43.030;25.108;2022-07-04T01:35:53;6.75;;;5.10;;
21959;SDS011;11144;43.030;25.108;2022-07-04T01:37:27;12.88;;;5.50;;
21959;SDS011;11144;43.030;25.108;2022-07-04T01:39:01;7.35;;;5.07;;
21959;SDS011;11144;43.030;25.108;2022-07-04T01:40:34;6.55;;;4.68;;
21959;SDS011;11144;43.030;25.108;2022-07-04T01:42:08;10.23;;;4.45;;
21959;SDS011;11144;43.030;25.108;2022-07-04T01:43:40;7.97;;;5.15;;
21959;SDS011;11144;43.030;25.108;2022-07-04T01:45:13;7.35;;;4.95;;
21959;SDS011;11144;43.030;25.108;2022-07-04T01:46:47;8.10;;;5.15;;
21959;SDS011;11144;43.030;25.108;2022-07-04T01:48:20;6.47;;;5.38;;
21959;SDS011;11144;43.030;25.108;2022-07-04T01:49:54;6.32;;;5.13;;
21959;SDS011;11144;43.030;25.108;2022-07-04T01:51:28;7.03;;;5.07;;
21959;SDS011;11144;43.030;25.108;2022-07-04T01:53:02;7.15;;;5.25;;
21959;SDS011;11144;43.030;25.108;2022-07-04T01:54:35;8.07;;;5.80;;
21959;SDS011;11144;43.030;25.108;2022-07-04T01:56:09;10.88;;;5.63;;
21959;SDS011;11144;43.030;25.108;2022-07-04T01:57:42;9.98;;;5.40;;
21959;SDS011;11144;43.030;25.108;2022-07-04T01:59:16;8.07;;;5.80;;
21959;SDS011;11144;43.030;25.108;2022-07-04T02:00:49;10.57;;;5.80;;
21959;SDS011;11144;43.030;25.108;2022-07-04T02:02:39;14.93;;;5.32;;
21959;SDS011;11144;43.030;25.108;2022-07-04T02:04:12;7.80;;;5.28;;
21959;SDS011;11144;43.030;25.108;2022-07-04T02:05:45;10.43;;;5.30;;
21959;SDS011;11144;43.030;25.108;2022-07-04T02:07:19;13.02;;;5.70;;
21959;SDS011;11144;43.030;25.108;2022-07-04T02:08:52;10.85;;;4.70;;
21959;SDS011;11144;43.030;25.108;2022-07-04T02:10:43;6.55;;;4.15;;
21959;SDS011;11144;43.030;25.108;2022-07-04T02:12:16;8.10;;;5.05;;
21959;SDS011;11144;43.030;25.108;2022-07-04T02:14:07;7.95;;;4.60;;
21959;SDS011;11144;43.030;25.108;2022-07-04T02:15:40;6.47;;;4.90;;
21959;SDS011;11144;43.030;25.108;2022-07-04T02:17:15;5.53;;;4.90;;
21959;SDS011;11144;43.030;25.108;2022-07-04T02:18:48;7.43;;;5.43;;
21959;SDS011;11144;43.030;25.108;2022-07-04T02:20:21;6.57;;;4.88;;
21959;SDS011;11144;43.030;25.108;2022-07-04T02:21:55;12.07;;;5.75;;
21959;SDS011;11144;43.030;25.108;2022-07-04T02:23:28;8.18;;;5.10;;
21959;SDS011;11144;43.030;25.108;2022-07-04T02:25:02;6.35;;;5.25;;
21959;SDS011;11144;43.030;25.108;2022-07-04T02:26:36;7.05;;;5.18;;
21959;SDS011;11144;43.030;25.108;2022-07-04T02:28:09;9.15;;;5.20;;
21959;SDS011;11144;43.030;25.108;2022-07-04T02:29:43;6.97;;;5.30;;
21959;SDS011;11144;43.030;25.108;2022-07-04T02:31:16;5.65;;;4.45;;
21959;SDS011;11144;43.030;25.108;2022-07-04T02:32:48;8.80;;;5.38;;
21959;SDS011;11144;43.030;25.108;2022-07-04T02:34:22;8.68;;;5.00;;
21959;SDS011;11144;43.030;25.108;2022-07-04T02:35:55;7.55;;;5.20;;
21959;SDS011;11144;43.030;25.108;2022-07-04T02:37:29;8.82;;;5.05;;
21959;SDS011;11144;43.030;25.108;2022-07-04T02:39:03;7.18;;;4.32;;
21959;SDS011;11144;43.030;25.108;2022-07-04T02:40:37;7.70;;;5.00;;
21959;SDS011;11144;43.030;25.108;2022-07-04T02:42:11;6.03;;;4.50;;
21959;SDS011;11144;43.030;25.108;2022-07-04T02:43:44;6.60;;;4.30;;
21959;SDS011;11144;43.030;25.108;2022-07-04T02:45:17;8.80;;;4.97;;
21959;SDS011;11144;43.030;25.108;2022-07-04T02:46:51;5.45;;;4.38;;
21959;SDS011;11144;43.030;25.108;2022-07-04T02:48:24;6.22;;;4.47;;
21959;SDS011;11144;43.030;25.108;2022-07-04T02:49:58;8.85;;;5.25;;
21959;SDS011;11144;43.030;25.108;2022-07-04T02:51:34;8.07;;;5.15;;
21959;SDS011;11144;43.030;25.108;2022-07-04T02:53:07;7.72;;;5.18;;
21959;SDS011;11144;43.030;25.108;2022-07-04T02:54:42;6.75;;;5.05;;
21959;SDS011;11144;43.030;25.108;2022-07-04T02:56:17;10.70;;;4.63;;
21959;SDS011;11144;43.030;25.108;2022-07-04T02:57:50;5.70;;;4.72;;
21959;SDS011;11144;43.030;25.108;2022-07-04T02:59:22;6.13;;;4.40;;
21959;SDS011;11144;43.030;25.108;2022-07-04T03:00:56;10.07;;;5.15;;
21959;SDS011;11144;43.030;25.108;2022-07-04T03:02:29;17.33;;;12.82;;
21959;SDS011;11144;43.030;25.108;2022-07-04T03:04:03;22.52;;;15.65;;
21959;SDS011;11144;43.030;25.108;2022-07-04T03:05:36;16.52;;;10.93;;
21959;SDS011;11144;43.030;25.108;2022-07-04T03:07:09;6.90;;;4.85;;
21959;SDS011;11144;43.030;25.108;2022-07-04T03:08:42;7.88;;;4.63;;
21959;SDS011;11144;43.030;25.108;2022-07-04T03:10:17;8.15;;;4.88;;
21959;SDS011;11144;43.030;25.108;2022-07-04T03:11:49;5.25;;;4.50;;
21959;SDS011;11144;43.030;25.108;2022-07-04T03:13:23;7.47;;;5.32;;
21959;SDS011;11144;43.030;25.108;2022-07-04T03:14:57;6.57;;;5.05;;
21959;SDS011;11144;43.030;25.108;2022-07-04T03:16:30;5.30;;;4.50;;
21959;SDS011;11144;43.030;25.108;2022-07-04T03:18:04;6.70;;;5.05;;
21959;SDS011;11144;43.030;25.108;2022-07-04T03:19:37;6.88;;;5.28;;
21959;SDS011;11144;43.030;25.108;2022-07-04T03:21:10;7.97;;;4.93;;
21959;SDS011;11144;43.030;25.108;2022-07-04T03:22:44;6.15;;;4.95;;
21959;SDS011;11144;43.030;25.108;2022-07-04T03:24:17;9.40;;;5.30;;
21959;SDS011;11144;43.030;25.108;2022-07-04T03:25:52;5.97;;;4.70;;
21959;SDS011;11144;43.030;25.108;2022-07-04T03:27:24;6.95;;;5.07;;
21959;SDS011;11144;43.030;25.108;2022-07-04T03:28:58;9.95;;;5.45;;
21959;SDS011;11144;43.030;25.108;2022-07-04T03:30:32;7.78;;;4.90;;
21959;SDS011;11144;43.030;25.108;2022-07-04T03:32:06;9.15;;;5.35;;
21959;SDS011;11144;43.030;25.108;2022-07-04T03:33:40;7.43;;;4.90;;
21959;SDS011;11144;43.030;25.108;2022-07-04T03:35:13;6.90;;;4.88;;
21959;SDS011;11144;43.030;25.108;2022-07-04T03:36:47;8.07;;;5.03;;
21959;SDS011;11144;43.030;25.108;2022-07-04T03:38:20;15.43;;;6.22;;
21959;SDS011;11144;43.030;25.108;2022-07-04T03:39:52;7.22;;;4.75;;
21959;SDS011;11144;43.030;25.108;2022-07-04T03:41:27;13.77;;;9.23;;
21959;SDS011;11144;43.030;25.108;2022-07-04T03:43:01;7.28;;;5.43;;
21959;SDS011;11144;43.030;25.108;2022-07-04T03:44:33;8.35;;;4.95;;
21959;SDS011;11144;43.030;25.108;2022-07-04T03:46:06;6.95;;;4.80;;
21959;SDS011;11144;43.030;25.108;2022-07-04T03:47:40;5.65;;;4.85;;
21959;SDS011;11144;43.030;25.108;2022-07-04T03:49:14;5.88;;;4.63;;
21959;SDS011;11144;43.030;25.108;2022-07-04T03:50:47;6.18;;;4.65;;
21959;SDS011;11144;43.030;25.108;2022-07-04T03:52:20;7.68;;;5.13;;
21959;SDS011;11144;43.030;25.108;2022-07-04T03:53:54;6.18;;;4.75;;
21959;SDS011;11144;43.030;25.108;2022-07-04T03:55:27;7.55;;;4.88;;
21959;SDS011;11144;43.030;25.108;2022-07-04T03:57:02;12.88;;;5.63;;
21959;SDS011;11144;43.030;25.108;2022-07-04T03:58:36;5.55;;;5.00;;
21959;SDS011;11144;43.030;25.108;2022-07-04T04:00:09;5.65;;;5.10;;
21959;SDS011;11144;43.030;25.108;2022-07-04T04:01:44;5.70;;;5.10;;
21959;SDS011;11144;43.030;25.108;2022-07-04T04:03:17;15.07;;;5.13;;
21959;SDS011;11144;43.030;25.108;2022-07-04T04:05:08;6.32;;;5.38;;
21959;SDS011;11144;43.030;25.108;2022-07-04T04:07:02;8.93;;;5.00;;
21959;SDS011;11144;43.030;25.108;2022-07-04T04:08:36;7.15;;;4.80;;
21959;SDS011;11144;43.030;25.108;2022-07-04T04:10:10;8.60;;;5.28;;
21959;SDS011;11144;43.030;25.108;2022-07-04T04:11:43;7.40;;;4.93;;
21959;SDS011;11144;43.030;25.108;2022-07-04T04:13:18;7.18;;;4.65;;
21959;SDS011;11144;43.030;25.108;2022-07-04T04:14:52;6.35;;;5.25;;
21959;SDS011;11144;43.030;25.108;2022-07-04T04:16:25;5.60;;;5.00;;
21959;SDS011;11144;43.030;25.108;2022-07-04T04:17:58;6.10;;;5.20;;
21959;SDS011;11144;43.030;25.108;2022-07-04T04:19:32;7.93;;;5.63;;
21959;SDS011;11144;43.030;25.108;2022-07-04T04:21:05;9.48;;;6.03;;
21959;SDS011;11144;43.030;25.108;2022-07-04T04:22:38;6.50;;;5.20;;
21959;SDS011;11144;43.030;25.108;2022-07-04T04:24:12;6.95;;;5.13;;
21959;SDS011;11144;43.030;25.108;2022-07-04T04:25:44;9.63;;;5.40;;
21959;SDS011;11144;43.030;25.108;2022-07-04T04:27:23;6.88;;;4.82;;
21959;SDS011;11144;43.030;25.108;2022-07-04T04:28:58;7.38;;;4.72;;
21959;SDS011;11144;43.030;25.108;2022-07-04T04:30:32;7.45;;;4.70;;
21959;SDS011;11144;43.030;25.108;2022-07-04T04:32:05;6.97;;;4.53;;
21959;SDS011;11144;43.030;25.108;2022-07-04T04:33:40;7.28;;;5.88;;
21959;SDS011;11144;43.030;25.108;2022-07-04T04:35:13;8.25;;;4.78;;
21959;SDS011;11144;43.030;25.108;2022-07-04T04:36:46;9.57;;;5.32;;
21959;SDS011;11144;43.030;25.108;2022-07-04T04:38:19;8.30;;;5.03;;
21959;SDS011;11144;43.030;25.108;2022-07-04T04:39:53;7.32;;;5.53;;
21959;SDS011;11144;43.030;25.108;2022-07-04T04:41:26;9.07;;;4.97;;
21959;SDS011;11144;43.030;25.108;2022-07-04T04:42:59;10.35;;;5.95;;
21959;SDS011;11144;43.030;25.108;2022-07-04T04:44:34;6.18;;;4.68;;
21959;SDS011;11144;43.030;25.108;2022-07-04T04:46:08;6.32;;;5.00;;
21959;SDS011;11144;43.030;25.108;2022-07-04T04:47:41;5.43;;;4.85;;
21959;SDS011;11144;43.030;25.108;2022-07-04T04:49:15;9.27;;;4.93;;
21959;SDS011;11144;43.030;25.108;2022-07-04T04:50:49;9.23;;;4.82;;
21959;SDS011;11144;43.030;25.108;2022-07-04T04:52:22;6.50;;;4.30;;
21959;SDS011;11144;43.030;25.108;2022-07-04T04:53:55;5.88;;;4.30;;
21959;SDS011;11144;43.030;25.108;2022-07-04T04:55:28;10.07;;;4.53;;
21959;SDS011;11144;43.030;25.108;2022-07-04T04:57:02;9.13;;;4.63;;
21959;SDS011;11144;43.030;25.108;2022-07-04T04:58:35;4.28;;;3.88;;
21959;SDS011;11144;43.030;25.108;2022-07-04T05:00:11;4.70;;;4.18;;
21959;SDS011;11144;43.030;25.108;2022-07-04T05:01:44;8.02;;;3.97;;
21959;SDS011;11144;43.030;25.108;2022-07-04T05:03:18;7.30;;;3.80;;
21959;SDS011;11144;43.030;25.108;2022-07-04T05:04:51;7.53;;;4.60;;
21959;SDS011;11144;43.030;25.108;2022-07-04T05:06:25;4.95;;;4.40;;
21959;SDS011;11144;43.030;25.108;2022-07-04T05:07:58;6.00;;;4.15;;
21959;SDS011;11144;43.030;25.108;2022-07-04T05:09:31;4.43;;;4.03;;
21959;SDS011;11144;43.030;25.108;2022-07-04T05:11:05;8.23;;;4.43;;
21959;SDS011;11144;43.030;25.108;2022-07-04T05:12:38;8.20;;;4.75;;
21959;SDS011;11144;43.030;25.108;2022-07-04T05:14:11;7.38;;;4.50;;
21959;SDS011;11144;43.030;25.108;2022-07-04T05:15:46;8.65;;;4.78;;
21959;SDS011;11144;43.030;25.108;2022-07-04T05:17:20;7.35;;;4.47;;
21959;SDS011;11144;43.030;25.108;2022-07-04T05:18:53;7.18;;;4.43;;
21959;SDS011;11144;43.030;25.108;2022-07-04T05:20:27;15.32;;;4.93;;
21959;SDS011;11144;43.030;25.108;2022-07-04T05:22:01;9.40;;;4.47;;
21959;SDS011;11144;43.030;25.108;2022-07-04T05:23:34;15.00;;;5.45;;
21959;SDS011;11144;43.030;25.108;2022-07-04T05:25:08;10.27;;;4.95;;
21959;SDS011;11144;43.030;25.108;2022-07-04T05:26:42;5.70;;;4.18;;
21959;SDS011;11144;43.030;25.108;2022-07-04T05:28:15;7.57;;;4.40;;
21959;SDS011;11144;43.030;25.108;2022-07-04T05:29:48;10.40;;;4.68;;
21959;SDS011;11144;43.030;25.108;2022-07-04T05:31:26;12.38;;;4.68;;
21959;SDS011;11144;43.030;25.108;2022-07-04T05:33:00;8.23;;;5.05;;
21959;SDS011;11144;43.030;25.108;2022-07-04T05:34:33;8.05;;;4.55;;
21959;SDS011;11144;43.030;25.108;2022-07-04T05:36:07;7.07;;;4.47;;
21959;SDS011;11144;43.030;25.108;2022-07-04T05:37:40;10.98;;;4.97;;
21959;SDS011;11144;43.030;25.108;2022-07-04T05:39:14;12.43;;;5.65;;
21959;SDS011;11144;43.030;25.108;2022-07-04T05:40:48;8.48;;;4.35;;
21959;SDS011;11144;43.030;25.108;2022-07-04T05:42:21;12.23;;;4.82;;
21959;SDS011;11144;43.030;25.108;2022-07-04T05:43:55;8.18;;;4.68;;
21959;SDS011;11144;43.030;25.108;2022-07-04T05:45:29;8.45;;;4.57;;
21959;SDS011;11144;43.030;25.108;2022-07-04T05:47:04;10.57;;;4.03;;
21959;SDS011;11144;43.030;25.108;2022-07-04T05:48:38;11.27;;;4.82;;
21959;SDS011;11144;43.030;25.108;2022-07-04T05:50:11;13.25;;;5.18;;
21959;SDS011;11144;43.030;25.108;2022-07-04T05:51:44;5.95;;;4.10;;
21959;SDS011;11144;43.030;25.108;2022-07-04T05:53:18;6.10;;;4.25;;
21959;SDS011;11144;43.030;25.108;2022-07-04T05:54:51;7.00;;;4.25;;
21959;SDS011;11144;43.030;25.108;2022-07-04T05:56:24;12.30;;;4.95;;
21959;SDS011;11144;43.030;25.108;2022-07-04T05:57:57;9.45;;;4.53;;
21959;SDS011;11144;43.030;25.108;2022-07-04T05:59:31;6.80;;;3.92;;
21959;SDS011;11144;43.030;25.108;2022-07-04T06:01:04;7.97;;;4.65;;
21959;SDS011;11144;43.030;25.108;2022-07-04T06:02:39;11.05;;;4.68;;
21959;SDS011;11144;43.030;25.108;2022-07-04T06:04:13;11.07;;;5.30;;
21959;SDS011;11144;43.030;25.108;2022-07-04T06:05:46;7.70;;;4.63;;
21959;SDS011;11144;43.030;25.108;2022-07-04T06:07:20;7.97;;;5.10;;
21959;SDS011;11144;43.030;25.108;2022-07-04T06:08:54;8.90;;;4.97;;
21959;SDS011;11144;43.030;25.108;2022-07-04T06:10:27;7.00;;;5.47;;
21959;SDS011;11144;43.030;25.108;2022-07-04T06:12:00;6.93;;;4.95;;
21959;SDS011;11144;43.030;25.108;2022-07-04T06:13:34;9.23;;;5.78;;
21959;SDS011;11144;43.030;25.108;2022-07-04T06:15:07;7.35;;;4.80;;
21959;SDS011;11144;43.030;25.108;2022-07-04T06:16:42;6.68;;;5.05;;
21959;SDS011;11144;43.030;25.108;2022-07-04T06:18:17;8.18;;;5.28;;
21959;SDS011;11144;43.030;25.108;2022-07-04T06:19:50;10.77;;;4.72;;
21959;SDS011;11144;43.030;25.108;2022-07-04T06:21:23;8.63;;;5.20;;
21959;SDS011;11144;43.030;25.108;2022-07-04T06:22:57;8.25;;;4.95;;
21959;SDS011;11144;43.030;25.108;2022-07-04T06:24:30;6.55;;;4.55;;
21959;SDS011;11144;43.030;25.108;2022-07-04T06:26:04;5.75;;;4.28;;
21959;SDS011;11144;43.030;25.108;2022-07-04T06:27:37;9.98;;;4.65;;
21959;SDS011;11144;43.030;25.108;2022-07-04T06:29:12;7.55;;;4.35;;
21959;SDS011;11144;43.030;25.108;2022-07-04T06:30:45;9.45;;;4.30;;
21959;SDS011;11144;43.030;25.108;2022-07-04T06:32:18;4.90;;;4.43;;
21959;SDS011;11144;43.030;25.108;2022-07-04T06:33:59;6.65;;;4.85;;
21959;SDS011;11144;43.030;25.108;2022-07-04T06:35:50;8.93;;;4.57;;
21959;SDS011;11144;43.030;25.108;2022-07-04T06:37:26;4.90;;;4.15;;
21959;SDS011;11144;43.030;25.108;2022-07-04T06:38:59;6.50;;;4.15;;
21959;SDS011;11144;43.030;25.108;2022-07-04T06:40:33;17.45;;;5.43;;
21959;SDS011;11144;43.030;25.108;2022-07-04T06:42:07;12.25;;;5.68;;
21959;SDS011;11144;43.030;25.108;2022-07-04T06:43:41;11.48;;;4.80;;
21959;SDS011;11144;43.030;25.108;2022-07-04T06:45:15;12.25;;;4.25;;
21959;SDS011;11144;43.030;25.108;2022-07-04T06:46:48;5.50;;;4.45;;
21959;SDS011;11144;43.030;25.108;2022-07-04T06:48:22;7.72;;;4.05;;
21959;SDS011;11144;43.030;25.108;2022-07-04T06:49:57;6.28;;;4.22;;
21959;SDS011;11144;43.030;25.108;2022-07-04T06:51:50;6.50;;;3.65;;
21959;SDS011;11144;43.030;25.108;2022-07-04T06:53:24;7.32;;;3.67;;
21959;SDS011;11144;43.030;25.108;2022-07-04T06:54:57;8.25;;;4.03;;
21959;SDS011;11144;43.030;25.108;2022-07-04T06:56:37;4.40;;;3.90;;
21959;SDS011;11144;43.030;25.108;2022-07-04T06:58:10;6.18;;;3.58;;
21959;SDS011;11144;43.030;25.108;2022-07-04T06:59:44;9.55;;;3.67;;
21959;SDS011;11144;43.030;25.108;2022-07-04T07:01:18;3.63;;;3.25;;
21959;SDS011;11144;43.030;25.108;2022-07-04T07:02:52;7.47;;;3.65;;
21959;SDS011;11144;43.030;25.108;2022-07-04T07:04:24;9.65;;;3.47;;
21959;SDS011;11144;43.030;25.108;2022-07-04T07:05:59;6.40;;;3.95;;
21959;SDS011;11144;43.030;25.108;2022-07-04T07:07:34;7.53;;;3.53;;
21959;SDS011;11144;43.030;25.108;2022-07-04T07:09:06;9.48;;;4.05;;
21959;SDS011;11144;43.030;25.108;2022-07-04T07:10:39;6.47;;;3.70;;
21959;SDS011;11144;43.030;25.108;2022-07-04T07:12:13;5.00;;;3.45;;
21959;SDS011;11144;43.030;25.108;2022-07-04T07:13:47;5.28;;;3.78;;
21959;SDS011;11144;43.030;25.108;2022-07-04T07:15:22;4.95;;;3.50;;
21959;SDS011;11144;43.030;25.108;2022-07-04T07:17:02;7.68;;;4.20;;
21959;SDS011;11144;43.030;25.108;2022-07-04T07:18:36;6.35;;;3.88;;
21959;SDS011;11144;43.030;25.108;2022-07-04T07:20:10;4.78;;;4.10;;
21959;SDS011;11144;43.030;25.108;2022-07-04T07:21:46;10.65;;;4.07;;
21959;SDS011;11144;43.030;25.108;2022-07-04T07:23:19;10.73;;;4.00;;
21959;SDS011;11144;43.030;25.108;2022-07-04T07:24:53;8.55;;;4.40;;
21959;SDS011;11144;43.030;25.108;2022-07-04T07:26:26;7.10;;;3.70;;
21959;SDS011;11144;43.030;25.108;2022-07-04T07:28:00;5.45;;;3.80;;
21959;SDS011;11144;43.030;25.108;2022-07-04T07:29:34;10.20;;;3.72;;
21959;SDS011;11144;43.030;25.108;2022-07-04T07:31:07;8.75;;;3.97;;
21959;SDS011;11144;43.030;25.108;2022-07-04T07:32:41;5.07;;;3.78;;
21959;SDS011;11144;43.030;25.108;2022-07-04T07:34:14;4.30;;;3.60;;
21959;SDS011;11144;43.030;25.108;2022-07-04T07:35:48;5.40;;;3.70;;
21959;SDS011;11144;43.030;25.108;2022-07-04T07:37:23;10.02;;;3.60;;
21959;SDS011;11144;43.030;25.108;2022-07-04T07:38:56;8.00;;;3.65;;
21959;SDS011;11144;43.030;25.108;2022-07-04T07:40:29;5.20;;;3.65;;
21959;SDS011;11144;43.030;25.108;2022-07-04T07:42:03;6.00;;;3.10;;
21959;SDS011;11144;43.030;25.108;2022-07-04T07:43:37;7.97;;;3.35;;
21959;SDS011;11144;43.030;25.108;2022-07-04T07:45:11;5.32;;;3.22;;
21959;SDS011;11144;43.030;25.108;2022-07-04T07:46:44;7.30;;;2.95;;
21959;SDS011;11144;43.030;25.108;2022-07-04T07:48:18;7.18;;;3.15;;
21959;SDS011;11144;43.030;25.108;2022-07-04T07:49:51;5.93;;;2.92;;
21959;SDS011;11144;43.030;25.108;2022-07-04T07:51:25;3.85;;;2.88;;
21959;SDS011;11144;43.030;25.108;2022-07-04T07:52:59;6.00;;;2.45;;
21959;SDS011;11144;43.030;25.108;2022-07-04T07:54:33;4.20;;;3.00;;
21959;SDS011;11144;43.030;25.108;2022-07-04T07:56:27;5.28;;;2.83;;
21959;SDS011;11144;43.030;25.108;2022-07-04T07:58:00;8.85;;;3.20;;
21959;SDS011;11144;43.030;25.108;2022-07-04T07:59:33;10.50;;;3.72;;
21959;SDS011;11144;43.030;25.108;2022-07-04T08:01:07;8.30;;;3.40;;
21959;SDS011;11144;43.030;25.108;2022-07-04T08:02:39;8.40;;;3.88;;
21959;SDS011;11144;43.030;25.108;2022-07-04T08:04:30;9.23;;;2.88;;
21959;SDS011;11144;43.030;25.108;2022-07-04T08:06:10;8.27;;;3.83;;
21959;SDS011;11144;43.030;25.108;2022-07-04T08:07:45;5.15;;;2.92;;
21959;SDS011;11144;43.030;25.108;2022-07-04T08:09:19;5.85;;;2.58;;
21959;SDS011;11144;43.030;25.108;2022-07-04T08:10:53;5.72;;;2.83;;
21959;SDS011;11144;43.030;25.108;2022-07-04T08:12:26;6.88;;;2.97;;
21959;SDS011;11144;43.030;25.108;2022-07-04T08:14:00;7.68;;;2.60;;
21959;SDS011;11144;43.030;25.108;2022-07-04T08:15:33;7.47;;;2.55;;
21959;SDS011;11144;43.030;25.108;2022-07-04T08:17:06;9.15;;;2.65;;
21959;SDS011;11144;43.030;25.108;2022-07-04T08:18:43;10.88;;;3.00;;
21959;SDS011;11144;43.030;25.108;2022-07-04T08:20:16;9.02;;;3.10;;
21959;SDS011;11144;43.030;25.108;2022-07-04T08:21:49;4.75;;;2.30;;
21959;SDS011;11144;43.030;25.108;2022-07-04T08:23:43;7.28;;;2.22;;
21959;SDS011;11144;43.030;25.108;2022-07-04T08:25:38;5.07;;;2.70;;
21959;SDS011;11144;43.030;25.108;2022-07-04T08:27:11;6.05;;;2.17;;
21959;SDS011;11144;43.030;25.108;2022-07-04T08:28:45;5.45;;;2.20;;
21959;SDS011;11144;43.030;25.108;2022-07-04T08:30:18;5.25;;;2.33;;
21959;SDS011;11144;43.030;25.108;2022-07-04T08:31:52;3.08;;;2.00;;
21959;SDS011;11144;43.030;25.108;2022-07-04T08:33:25;3.88;;;2.10;;
21959;SDS011;11144;43.030;25.108;2022-07-04T08:35:06;4.18;;;2.47;;
21959;SDS011;11144;43.030;25.108;2022-07-04T08:36:40;6.63;;;2.40;;
21959;SDS011;11144;43.030;25.108;2022-07-04T08:38:13;3.75;;;2.38;;
21959;SDS011;11144;43.030;25.108;2022-07-04T08:39:47;5.38;;;2.03;;
21959;SDS011;11144;43.030;25.108;2022-07-04T08:41:22;6.20;;;2.22;;
21959;SDS011;11144;43.030;25.108;2022-07-04T08:42:56;4.38;;;1.92;;
21959;SDS011;11144;43.030;25.108;2022-07-04T08:44:30;6.35;;;2.30;;
21959;SDS011;11144;43.030;25.108;2022-07-04T08:46:06;8.93;;;2.45;;
21959;SDS011;11144;43.030;25.108;2022-07-04T08:47:53;6.90;;;2.42;;
21959;SDS011;11144;43.030;25.108;2022-07-04T08:49:32;3.03;;;2.28;;
21959;SDS011;11144;43.030;25.108;2022-07-04T08:51:09;4.00;;;2.47;;
21959;SDS011;11144;43.030;25.108;2022-07-04T08:52:51;7.22;;;2.38;;
21959;SDS011;11144;43.030;25.108;2022-07-04T08:54:29;5.20;;;2.70;;
21959;SDS011;11144;43.030;25.108;2022-07-04T08:56:23;4.30;;;2.42;;
21959;SDS011;11144;43.030;25.108;2022-07-04T08:58:14;5.47;;;2.20;;
21959;SDS011;11144;43.030;25.108;2022-07-04T09:00:02;2.70;;;2.40;;
21959;SDS011;11144;43.030;25.108;2022-07-04T09:01:37;4.75;;;2.47;;
21959;SDS011;11144;43.030;25.108;2022-07-04T09:03:13;9.00;;;2.63;;
21959;SDS011;11144;43.030;25.108;2022-07-04T09:04:46;4.60;;;2.67;;
21959;SDS011;11144;43.030;25.108;2022-07-04T09:06:22;5.40;;;2.45;;
21959;SDS011;11144;43.030;25.108;2022-07-04T09:07:58;6.13;;;2.15;;
21959;SDS011;11144;43.030;25.108;2022-07-04T09:09:33;4.30;;;1.80;;
21959;SDS011;11144;43.030;25.108;2022-07-04T09:11:07;5.95;;;1.90;;
21959;SDS011;11144;43.030;25.108;2022-07-04T09:12:42;2.88;;;1.95;;
21959;SDS011;11144;43.030;25.108;2022-07-04T09:14:35;2.97;;;1.70;;
21959;SDS011;11144;43.030;25.108;2022-07-04T09:16:08;2.42;;;2.00;;
21959;SDS011;11144;43.030;25.108;2022-07-04T09:17:42;3.67;;;2.30;;
21959;SDS011;11144;43.030;25.108;2022-07-04T09:19:18;6.03;;;2.03;;
21959;SDS011;11144;43.030;25.108;2022-07-04T09:20:53;6.78;;;2.10;;
21959;SDS011;11144;43.030;25.108;2022-07-04T09:22:28;3.38;;;2.28;;